Time;durP1;ratioP1;P1;durP2;ratioP2;P2;SDS_P1;SDS_P2;PMS_P1;PMS_P2;Temp;Humidity;BMP_temperature;BMP_pressure;BME280_temperature;BME280_humidity;BME280_pressure;Samples;Min_cycle;Max_cycle;Signal;HPM_P1;HPM_P2
2022/07/01 00:00:15;;;;;;;7.20;1.60;;;15.00;99.90;;;;;;4947693;28;272993;-70
2022/07/01 00:02:42;;;;;;;8.18;1.70;;;15.10;99.90;;;;;;4943025;28;83728;-71
2022/07/01 00:05:08;;;;;;;9.45;1.65;;;15.10;99.90;;;;;;4945177;28;268915;-69
2022/07/01 00:07:34;;;;;;;11.85;2.03;;;15.10;99.90;;;;;;4936341;28;206559;-69
2022/07/01 00:10:00;;;;;;;8.13;1.60;;;15.10;99.90;;;;;;4953488;28;274774;-70
2022/07/01 00:12:26;;;;;;;8.20;1.92;;;15.10;99.90;;;;;;4933941;28;213051;-68
2022/07/01 00:14:52;;;;;;;7.47;1.65;;;15.10;99.90;;;;;;4953243;28;157298;-69
2022/07/01 00:17:18;;;;;;;6.20;1.67;;;15.10;99.90;;;;;;4951413;28;206071;-69
2022/07/01 00:19:45;;;;;;;8.52;1.55;;;15.20;99.90;;;;;;4951439;28;271489;-70
2022/07/01 00:22:11;;;;;;;10.20;2.28;;;15.20;99.90;;;;;;4957288;28;207639;-69
2022/07/01 00:24:38;;;;;;;8.38;1.70;;;15.20;99.90;;;;;;4960007;28;49133;-69
2022/07/01 00:27:04;;;;;;;7.78;1.77;;;15.20;99.90;;;;;;4959174;28;185406;-69
2022/07/01 00:29:32;;;;;;;7.85;1.92;;;15.20;99.90;;;;;;4949575;28;261550;-69
2022/07/01 00:31:59;;;;;;;10.38;1.90;;;15.20;99.90;;;;;;4940759;28;208167;-69
2022/07/01 00:34:25;;;;;;;9.25;2.00;;;15.30;99.90;;;;;;4954014;28;275509;-69
2022/07/01 00:36:51;;;;;;;8.70;1.95;;;15.30;99.90;;;;;;4929203;28;210009;-69
2022/07/01 00:39:17;;;;;;;8.10;1.90;;;15.30;99.90;;;;;;4948107;28;264134;-69
2022/07/01 00:41:43;;;;;;;9.95;2.10;;;15.30;99.90;;;;;;4956705;28;206431;-69
2022/07/01 00:44:19;;;;;;;9.00;1.80;;;15.30;99.90;;;;;;4958035;28;259218;-69
2022/07/01 00:46:46;;;;;;;8.25;2.03;;;15.30;99.90;;;;;;4951122;28;207347;-70
2022/07/01 00:49:12;;;;;;;7.20;1.60;;;15.30;99.90;;;;;;4958463;28;265831;-69
2022/07/01 00:51:39;;;;;;;8.07;1.45;;;15.30;99.90;;;;;;4951828;28;172936;-69
2022/07/01 00:54:05;;;;;;;6.32;1.52;;;15.20;99.90;;;;;;4988579;28;20057;-69
2022/07/01 00:56:31;;;;;;;7.82;1.23;;;15.20;99.90;;;;;;4927654;28;174904;-69
2022/07/01 00:58:58;;;;;;;6.05;1.30;;;15.20;99.90;;;;;;4978047;28;20487;-69
2022/07/01 01:01:24;;;;;;;7.07;1.08;;;15.20;99.90;;;;;;4928684;28;270466;-70
2022/07/01 01:03:50;;;;;;;5.25;1.00;;;15.20;99.90;;;;;;4980485;28;20375;-70
2022/07/01 01:06:16;;;;;;;5.65;0.98;;;15.20;99.90;;;;;;4911068;28;264390;-70
2022/07/01 01:08:44;;;;;;;5.28;0.90;;;15.10;99.90;;;;;;4980882;28;20038;-69
2022/07/01 01:11:10;;;;;;;3.05;0.80;;;15.10;99.90;;;;;;4924248;28;261536;-69
2022/07/01 01:13:37;;;;;;;4.25;0.80;;;15.00;99.90;;;;;;4976412;28;20154;-68
2022/07/01 01:16:03;;;;;;;4.75;0.90;;;15.00;99.90;;;;;;4917876;28;154650;-68
2022/07/01 01:18:30;;;;;;;2.45;0.70;;;15.00;99.90;;;;;;4963449;28;20047;-70
2022/07/01 01:20:56;;;;;;;3.13;0.90;;;15.00;99.90;;;;;;4938950;28;90956;-69
2022/07/01 01:23:22;;;;;;;5.47;0.90;;;15.00;99.90;;;;;;4974766;28;20043;-69
2022/07/01 01:25:48;;;;;;;5.25;1.00;;;15.00;99.90;;;;;;4919747;28;276848;-70
2022/07/01 01:28:15;;;;;;;5.90;1.00;;;15.00;99.90;;;;;;4972561;28;20059;-70
2022/07/01 01:30:41;;;;;;;3.63;0.82;;;15.00;99.90;;;;;;4926236;28;235573;-70
2022/07/01 01:33:11;;;;;;;4.22;0.90;;;15.10;99.90;;;;;;4968666;28;20846;-70
2022/07/01 01:35:38;;;;;;;3.77;0.93;;;15.10;99.90;;;;;;4899615;28;205959;-69
2022/07/01 01:38:04;;;;;;;5.55;0.90;;;15.10;99.90;;;;;;4991528;28;20453;-69
2022/07/01 01:40:31;;;;;;;3.72;0.95;;;15.10;99.90;;;;;;4922570;28;161275;-70
2022/07/01 01:42:57;;;;;;;6.43;1.20;;;15.10;99.90;;;;;;4978890;28;20043;-69
2022/07/01 01:45:23;;;;;;;6.10;1.25;;;15.00;99.90;;;;;;4909731;28;267533;-69
2022/07/01 01:47:49;;;;;;;7.03;1.23;;;15.00;99.90;;;;;;4996418;28;20401;-70
2022/07/01 01:50:16;;;;;;;7.20;1.30;;;15.00;99.90;;;;;;4945647;28;268902;-69
2022/07/01 01:52:43;;;;;;;4.35;1.17;;;15.00;99.90;;;;;;4952725;28;205249;-68
2022/07/01 01:55:10;;;;;;;6.55;1.40;;;15.00;99.90;;;;;;4955854;28;276659;-71
2022/07/01 01:57:36;;;;;;;5.95;1.42;;;15.00;99.90;;;;;;4948939;28;207709;-69
2022/07/01 02:00:05;;;;;;;5.18;1.30;;;15.00;99.90;;;;;;4957149;28;260262;-68
2022/07/01 02:02:31;;;;;;;5.28;1.30;;;15.00;99.90;;;;;;4953508;28;206723;-69
2022/07/01 02:04:57;;;;;;;4.95;1.30;;;15.00;99.90;;;;;;4948572;28;197494;-68
2022/07/01 02:07:23;;;;;;;5.13;1.42;;;15.00;99.90;;;;;;4981583;28;155214;-69
2022/07/01 02:09:49;;;;;;;4.95;1.30;;;15.00;99.90;;;;;;4977354;28;270286;-68
2022/07/01 02:12:16;;;;;;;6.72;1.20;;;15.00;99.90;;;;;;4979679;28;215671;-68
2022/07/01 02:14:42;;;;;;;6.70;1.40;;;15.00;99.90;;;;;;4975187;28;252245;-70
2022/07/01 02:17:08;;;;;;;5.97;1.50;;;14.90;99.90;;;;;;4951252;28;206965;-69
2022/07/01 02:19:34;;;;;;;7.43;1.48;;;14.90;99.90;;;;;;4952447;28;270395;-69
2022/07/01 02:22:00;;;;;;;7.32;1.80;;;14.90;99.90;;;;;;4953979;28;206037;-69
2022/07/01 02:24:26;;;;;;;7.45;1.60;;;14.90;99.90;;;;;;4956109;28;255257;-69
2022/07/01 02:26:52;;;;;;;5.53;1.50;;;14.90;99.90;;;;;;4957370;28;209216;-69
2022/07/01 02:29:19;;;;;;;7.90;1.90;;;15.00;99.90;;;;;;4956730;28;260015;-69
2022/07/01 02:31:45;;;;;;;9.18;1.90;;;14.90;99.90;;;;;;4947624;28;143163;-69
2022/07/01 02:34:11;;;;;;;7.43;1.90;;;14.90;99.90;;;;;;4959115;28;266501;-69
2022/07/01 02:36:37;;;;;;;8.52;2.00;;;14.90;99.90;;;;;;4942000;28;222815;-69
2022/07/01 02:39:03;;;;;;;8.70;1.90;;;14.90;99.90;;;;;;4966760;28;20057;-69
2022/07/01 02:41:29;;;;;;;8.20;1.80;;;14.90;99.90;;;;;;4920717;28;232716;-68
2022/07/01 02:43:55;;;;;;;8.10;2.00;;;14.90;99.90;;;;;;4971555;28;20066;-69
2022/07/01 02:46:22;;;;;;;6.90;2.30;;;14.90;99.90;;;;;;4926111;28;259082;-68
2022/07/01 02:48:48;;;;;;;8.38;2.15;;;14.90;99.90;;;;;;4985489;28;20066;-69
2022/07/01 02:51:14;;;;;;;7.05;2.00;;;14.90;99.90;;;;;;4913808;28;208418;-70
2022/07/01 02:53:40;;;;;;;6.80;1.80;;;14.90;99.90;;;;;;4978861;28;20513;-69
2022/07/01 02:56:06;;;;;;;9.00;2.20;;;14.90;99.90;;;;;;4925340;28;264613;-70
2022/07/01 02:58:32;;;;;;;7.63;2.17;;;14.90;99.90;;;;;;4986766;28;20391;-69
2022/07/01 03:00:58;;;;;;;8.32;1.88;;;14.90;99.90;;;;;;4931997;28;265338;-69
2022/07/01 03:03:24;;;;;;;9.05;2.10;;;14.90;99.90;;;;;;4988291;28;20039;-69
2022/07/01 03:05:51;;;;;;;9.20;2.28;;;14.90;99.90;;;;;;4908560;28;260406;-69
2022/07/01 03:08:17;;;;;;;6.45;2.22;;;14.90;99.90;;;;;;4979002;28;20061;-70
2022/07/01 03:10:43;;;;;;;9.23;2.50;;;14.90;99.90;;;;;;4916711;28;263565;-69
2022/07/01 03:13:09;;;;;;;10.45;3.05;;;14.80;99.90;;;;;;4965412;28;20058;-70
2022/07/01 03:15:35;;;;;;;8.23;2.80;;;14.80;99.90;;;;;;4911220;28;219636;-69
2022/07/01 03:18:02;;;;;;;9.18;2.58;;;14.80;99.90;;;;;;5017345;23;20054;-80
2022/07/01 03:20:29;;;;;;;9.00;3.30;;;14.80;99.90;;;;;;4950557;28;209073;-80
2022/07/01 03:22:55;;;;;;;8.82;3.00;;;14.80;99.90;;;;;;5008763;28;20057;-79
2022/07/01 03:25:22;;;;;;;8.27;2.80;;;14.80;99.90;;;;;;4942187;28;208076;-79
2022/07/01 03:27:49;;;;;;;8.70;2.97;;;14.80;99.90;;;;;;4994383;28;20054;-80
2022/07/01 03:30:16;;;;;;;8.07;2.88;;;14.80;99.90;;;;;;4974994;28;126022;-79
2022/07/01 03:32:43;;;;;;;8.20;2.85;;;14.80;99.90;;;;;;4966578;28;179370;-77
2022/07/01 03:37:55;;;;;;;8.60;3.28;;;14.80;99.90;;;;;;4934554;28;205197;-78
2022/07/01 03:40:21;;;;;;;10.95;3.35;;;14.80;99.90;;;;;;4943249;28;205819;-78
2022/07/01 03:42:48;;;;;;;11.65;3.80;;;14.80;99.90;;;;;;4997543;28;20457;-77
2022/07/01 03:45:14;;;;;;;9.07;4.25;;;14.70;99.90;;;;;;4994948;28;45793;-75
2022/07/01 03:47:46;;;;;;;9.15;4.20;;;14.80;99.90;;;;;;4935500;28;205511;-77
2022/07/01 03:50:12;;;;;;;10.02;4.35;;;14.80;99.90;;;;;;4979506;28;156087;-77
2022/07/01 03:52:40;;;;;;;12.00;5.10;;;14.70;99.90;;;;;;4955232;28;218913;-77
2022/07/01 03:55:06;;;;;;;13.68;6.00;;;14.80;99.90;;;;;;5005299;28;32458;-79
2022/07/01 03:57:33;;;;;;;13.35;6.05;;;14.80;99.90;;;;;;4928803;28;207339;-79
2022/07/01 03:59:59;;;;;;;15.02;7.05;;;14.80;99.90;;;;;;4995029;28;208573;-78
2022/07/01 04:02:25;;;;;;;15.45;8.02;;;14.80;99.90;;;;;;4955682;28;205397;-79
2022/07/01 04:04:51;;;;;;;14.05;7.90;;;14.80;99.90;;;;;;4970814;28;238639;-79
2022/07/01 04:07:17;;;;;;;15.45;8.02;;;14.80;99.90;;;;;;4941366;28;209676;-79
2022/07/01 04:09:43;;;;;;;14.20;8.50;;;14.90;99.90;;;;;;4998861;28;36924;-80
2022/07/01 04:12:12;;;;;;;13.82;8.23;;;14.90;99.90;;;;;;4952937;28;198061;-79
2022/07/01 04:14:38;;;;;;;13.82;9.00;;;14.90;99.90;;;;;;4996918;28;89278;-79
2022/07/01 04:17:05;;;;;;;18.13;9.70;;;14.90;99.90;;;;;;4965247;28;216757;-78
2022/07/01 04:19:31;;;;;;;18.50;10.10;;;14.90;99.90;;;;;;4988563;28;247260;-78
2022/07/01 04:24:42;;;;;;;17.70;10.48;;;14.90;99.90;;;;;;5019461;28;63551;-78
2022/07/01 04:27:09;;;;;;;19.02;12.05;;;14.90;99.90;;;;;;4954800;28;205347;-78
2022/07/01 04:29:35;;;;;;;18.77;13.13;;;14.90;99.90;;;;;;4976781;28;49793;-79
2022/07/01 04:32:02;;;;;;;20.45;13.60;;;15.00;99.90;;;;;;4922328;28;209403;-81
2022/07/01 04:34:28;;;;;;;21.48;14.52;;;15.00;99.90;;;;;;4972370;28;256383;-78
2022/07/01 04:36:55;;;;;;;21.58;14.63;;;14.90;99.90;;;;;;4970858;28;205362;-78
2022/07/01 04:39:22;;;;;;;26.77;17.33;;;15.00;99.90;;;;;;4984906;28;257193;-76
2022/07/01 04:42:00;;;;;;;25.55;18.40;;;15.00;99.90;;;;;;4972602;28;230447;-78
2022/07/01 04:44:30;;;;;;;28.50;18.73;;;14.90;99.90;;;;;;4982810;28;268669;-78
2022/07/01 04:46:58;;;;;;;32.50;19.60;;;14.90;99.90;;;;;;4942372;28;208877;-78
2022/07/01 04:49:25;;;;;;;29.25;20.20;;;14.90;99.90;;;;;;4986492;28;265645;-78
2022/07/01 04:51:51;;;;;;;28.95;19.63;;;15.00;99.90;;;;;;4943831;28;211435;-77
2022/07/01 04:54:19;;;;;;;27.10;19.97;;;14.90;99.90;;;;;;4983738;28;266602;-79
2022/07/01 04:56:45;;;;;;;30.08;20.02;;;15.00;99.90;;;;;;4937572;28;204686;-78
2022/07/01 04:59:13;;;;;;;26.13;19.13;;;15.00;99.90;;;;;;4968808;28;251226;-78
2022/07/01 05:01:43;;;;;;;29.23;20.55;;;15.00;99.90;;;;;;4978481;28;141998;-78
2022/07/01 05:04:11;;;;;;;29.60;20.17;;;15.00;99.90;;;;;;4972627;28;266258;-78
2022/07/01 05:06:37;;;;;;;30.95;20.48;;;15.00;99.90;;;;;;4948028;28;210931;-78
2022/07/01 05:09:04;;;;;;;29.50;21.13;;;15.10;99.90;;;;;;5001523;28;20620;-77
2022/07/01 05:11:31;;;;;;;28.63;20.50;;;15.00;99.90;;;;;;4938378;28;254245;-78
2022/07/01 05:13:58;;;;;;;29.83;20.40;;;15.10;99.90;;;;;;5000575;28;20050;-78
2022/07/01 05:16:25;;;;;;;25.02;20.38;;;15.20;99.90;;;;;;4937950;28;205997;-80
2022/07/01 05:24:21;;;;;;;32.77;21.97;;;15.20;99.90;;;;;;5008677;28;247221;-77
2022/07/01 05:26:47;;;;;;;29.42;21.42;;;15.20;99.90;;;;;;4976995;28;212427;-78
2022/07/01 05:29:13;;;;;;;34.97;23.27;;;15.30;99.90;;;;;;4990820;28;273571;-78
2022/07/01 05:31:39;;;;;;;30.25;22.02;;;15.30;99.90;;;;;;4948160;28;215564;-78
2022/07/01 05:34:06;;;;;;;30.14;23.30;;;15.30;99.90;;;;;;4998383;28;271968;-75
2022/07/01 05:36:33;;;;;;;32.70;22.60;;;15.40;99.90;;;;;;4955261;28;206221;-77
2022/07/01 05:39:00;;;;;;;34.75;22.95;;;15.40;99.90;;;;;;5005854;28;20065;-77
2022/07/01 05:41:26;;;;;;;32.10;23.33;;;15.40;99.90;;;;;;4941168;28;238757;-76
2022/07/01 05:43:52;;;;;;;34.75;23.70;;;15.40;99.90;;;;;;5024884;28;20125;-76
2022/07/01 05:46:18;;;;;;;34.08;24.38;;;15.30;99.90;;;;;;4949403;28;269843;-77
2022/07/01 05:48:44;;;;;;;32.05;23.80;;;15.30;99.90;;;;;;4988274;28;20058;-78
2022/07/01 05:51:10;;;;;;;33.13;24.05;;;15.30;99.90;;;;;;4954499;28;94213;-77
2022/07/01 05:53:36;;;;;;;31.67;23.70;;;15.40;99.90;;;;;;5000864;28;20041;-78
2022/07/01 05:56:03;;;;;;;31.55;23.90;;;15.40;99.90;;;;;;4946908;28;265440;-77
2022/07/01 05:58:29;;;;;;;32.45;25.25;;;15.40;99.90;;;;;;4975471;28;20057;-78
2022/07/01 06:00:55;;;;;;;32.80;25.05;;;15.40;99.90;;;;;;4937878;28;212867;-78
2022/07/01 06:03:21;;;;;;;32.17;25.52;;;15.50;99.90;;;;;;4990142;28;20054;-78
2022/07/01 06:05:47;;;;;;;31.23;24.98;;;15.60;99.90;;;;;;4897150;28;217997;-78
2022/07/01 06:08:13;;;;;;;31.85;24.25;;;15.60;99.90;;;;;;4971330;28;20057;-78
2022/07/01 06:10:40;;;;;;;31.73;24.40;;;15.70;99.90;;;;;;4925564;28;250874;-78
2022/07/01 06:13:06;;;;;;;32.95;25.02;;;15.80;99.90;;;;;;4977675;28;20065;-77
2022/07/01 06:15:32;;;;;;;31.85;25.30;;;15.80;99.90;;;;;;4946691;28;209163;-77
2022/07/01 06:17:58;;;;;;;32.88;25.17;;;15.80;99.90;;;;;;4974085;28;20977;-77
2022/07/01 06:20:25;;;;;;;32.55;25.00;;;15.80;99.90;;;;;;4937915;28;226423;-78
2022/07/01 06:22:51;;;;;;;30.30;24.35;;;15.80;99.90;;;;;;4979422;28;20530;-79
2022/07/01 06:25:18;;;;;;;31.90;25.08;;;15.90;99.90;;;;;;4946608;28;210798;-78
2022/07/01 06:27:45;;;;;;;31.10;24.73;;;15.90;99.90;;;;;;4974519;28;207789;-79
2022/07/01 06:30:12;;;;;;;28.75;23.35;;;16.00;99.90;;;;;;4987170;28;60566;-79
2022/07/01 06:32:38;;;;;;;30.02;23.35;;;16.10;99.90;;;;;;4942255;28;204568;-80
2022/07/01 06:35:05;;;;;;;27.85;23.25;;;16.20;99.90;;;;;;4993467;28;24859;-78
2022/07/01 06:37:33;;;;;;;26.73;22.15;;;16.20;99.90;;;;;;4935000;28;205842;-78
2022/07/01 06:40:00;;;;;;;27.40;22.38;;;16.10;99.90;;;;;;4980386;28;33389;-81
2022/07/01 06:42:27;;;;;;;29.55;22.88;;;16.20;99.90;;;;;;4975956;28;209620;-79
2022/07/01 06:44:53;;;;;;;28.92;22.02;;;16.10;99.90;;;;;;4993912;28;183075;-79
2022/07/01 06:47:19;;;;;;;28.10;22.52;;;16.20;99.90;;;;;;4928325;28;220515;-80
2022/07/01 06:49:45;;;;;;;26.58;21.17;;;16.20;99.90;;;;;;4989365;28;263003;-77
2022/07/01 06:52:11;;;;;;;27.33;22.33;;;16.20;99.90;;;;;;4925810;28;208377;-78
2022/07/01 06:54:37;;;;;;;26.63;22.33;;;16.20;99.90;;;;;;4995038;28;129127;-77
2022/07/01 06:57:04;;;;;;;28.38;22.52;;;16.20;99.90;;;;;;4954889;28;205984;-77
2022/07/01 06:59:31;;;;;;;27.83;21.88;;;16.20;99.90;;;;;;4992521;28;73175;-77
2022/07/01 07:01:57;;;;;;;25.38;20.88;;;16.30;99.90;;;;;;4952444;28;212558;-77
2022/07/01 07:04:24;;;;;;;25.33;21.02;;;16.30;99.90;;;;;;4974487;28;258966;-78
2022/07/01 07:06:50;;;;;;;26.25;21.92;;;16.20;99.90;;;;;;4963742;28;229662;-76
2022/07/01 07:09:16;;;;;;;25.42;21.27;;;16.20;99.90;;;;;;4985455;28;261898;-76
2022/07/01 07:11:42;;;;;;;27.00;21.27;;;16.30;99.90;;;;;;4944256;28;213131;-75
2022/07/01 07:14:08;;;;;;;26.30;21.58;;;16.20;99.90;;;;;;4968329;28;270045;-75
2022/07/01 07:16:34;;;;;;;28.15;22.17;;;16.20;99.90;;;;;;4957337;28;206286;-76
2022/07/01 07:19:00;;;;;;;26.42;22.42;;;16.20;99.90;;;;;;4997881;28;20049;-74
2022/07/01 07:21:26;;;;;;;27.02;21.40;;;16.30;99.90;;;;;;4930569;28;205835;-75
2022/07/01 07:23:52;;;;;;;27.30;21.67;;;16.30;99.90;;;;;;4997730;28;20515;-75
2022/07/01 07:26:19;;;;;;;25.80;21.48;;;16.30;99.90;;;;;;4940546;28;230357;-75
2022/07/01 07:28:45;;;;;;;24.92;21.45;;;16.40;99.90;;;;;;5009262;28;20041;-75
2022/07/01 07:31:11;;;;;;;26.83;21.02;;;16.40;99.90;;;;;;4914780;28;163402;-74
2022/07/01 07:33:37;;;;;;;25.70;20.73;;;16.50;99.90;;;;;;5005968;28;20054;-75
2022/07/01 07:36:04;;;;;;;23.73;19.58;;;16.50;99.90;;;;;;4945273;28;205965;-75
2022/07/01 07:38:30;;;;;;;22.35;19.15;;;16.40;99.90;;;;;;4996248;28;20058;-75
2022/07/01 07:40:56;;;;;;;24.33;18.95;;;16.50;99.90;;;;;;4940726;28;213649;-75
2022/07/01 07:43:22;;;;;;;21.95;18.70;;;16.50;99.90;;;;;;4979408;28;20057;-76
2022/07/01 07:45:48;;;;;;;23.30;18.90;;;16.50;99.90;;;;;;4948663;28;215587;-75
2022/07/01 07:48:15;;;;;;;23.52;17.42;;;16.50;99.90;;;;;;4997133;28;20411;-75
2022/07/01 07:50:41;;;;;;;23.73;18.80;;;16.60;99.90;;;;;;4939378;28;211314;-76
2022/07/01 07:53:08;;;;;;;23.50;18.00;;;16.70;99.90;;;;;;5008199;28;20053;-75
2022/07/01 07:55:35;;;;;;;21.30;17.63;;;16.80;99.90;;;;;;4975609;28;198838;-75
2022/07/01 07:58:01;;;;;;;22.83;16.60;;;17.10;99.90;;;;;;5018206;28;20099;-75
2022/07/01 08:00:28;;;;;;;20.67;16.00;;;17.30;99.90;;;;;;4955732;28;206968;-76
2022/07/01 08:02:54;;;;;;;20.10;15.75;;;17.60;99.90;;;;;;4992905;28;20410;-77
2022/07/01 08:05:20;;;;;;;19.70;15.25;;;17.80;99.90;;;;;;4913077;28;254983;-77
2022/07/01 08:07:47;;;;;;;17.88;14.27;;;17.70;99.90;;;;;;4975670;28;20423;-76
2022/07/01 08:10:14;;;;;;;18.73;13.63;;;17.90;99.90;;;;;;4977151;28;225893;-76
2022/07/01 08:12:40;;;;;;;16.85;13.65;;;18.20;99.90;;;;;;4924572;28;204814;-77
2022/07/01 08:15:07;;;;;;;19.58;13.40;;;18.20;99.90;;;;;;4972777;28;174991;-77
2022/07/01 08:17:34;;;;;;;17.40;11.80;;;18.20;99.90;;;;;;4944273;28;202314;-77
2022/07/01 08:20:00;;;;;;;18.33;12.45;;;18.30;99.90;;;;;;4998424;28;20056;-76
2022/07/01 08:22:26;;;;;;;17.88;12.25;;;18.30;99.90;;;;;;4950255;28;145951;-77
2022/07/01 08:24:52;;;;;;;16.83;11.30;;;18.10;99.90;;;;;;4995842;28;129759;-77
2022/07/01 08:27:19;;;;;;;17.77;11.13;;;18.50;99.90;;;;;;4937152;28;209543;-77
2022/07/01 08:29:45;;;;;;;17.90;11.68;;;18.60;99.90;;;;;;4984420;28;57053;-77
2022/07/01 08:32:11;;;;;;;18.20;11.00;;;18.70;99.90;;;;;;4958136;28;203659;-77
2022/07/01 08:34:37;;;;;;;15.02;10.85;;;18.90;99.90;;;;;;4982396;28;117734;-77
2022/07/01 08:37:04;;;;;;;17.75;11.38;;;18.80;99.90;;;;;;4945882;28;205971;-76
2022/07/01 08:39:30;;;;;;;15.40;10.02;;;18.80;99.90;;;;;;4991461;28;235324;-78
2022/07/01 08:41:57;;;;;;;16.92;10.27;;;18.90;99.90;;;;;;4954574;28;216046;-76
2022/07/01 08:44:26;;;;;;;14.83;9.20;;;19.00;99.90;;;;;;4978339;28;268504;-76
2022/07/01 08:46:53;;;;;;;15.48;9.48;;;19.10;99.90;;;;;;4948211;28;220282;-77
2022/07/01 08:49:20;;;;;;;16.65;10.00;;;19.20;99.90;;;;;;4989374;28;261036;-77
2022/07/01 08:51:47;;;;;;;20.58;10.30;;;19.10;99.90;;;;;;4943518;28;214828;-79
2022/07/01 08:54:13;;;;;;;18.67;10.20;;;18.90;99.90;;;;;;4969239;28;264401;-76
2022/07/01 08:56:42;;;;;;;17.75;9.65;;;18.80;99.90;;;;;;4961169;28;201085;-77
2022/07/01 08:59:10;;;;;;;13.38;9.10;;;18.90;99.90;;;;;;5001384;28;274568;-77
2022/07/01 09:01:37;;;;;;;16.20;9.18;;;18.90;99.90;;;;;;4950727;28;199634;-77
2022/07/01 09:04:17;;;;;;;16.10;9.07;;;18.90;99.90;;;;;;5002149;28;20434;-78
2022/07/01 09:06:45;;;;;;;13.45;8.18;;;19.00;99.90;;;;;;4920270;28;205668;-77
2022/07/01 09:09:21;;;;;;;15.23;8.73;;;19.20;99.90;;;;;;4975287;28;254920;-76
2022/07/01 09:11:55;;;;;;;15.15;8.90;;;19.40;99.90;;;;;;4961837;28;110590;-77
2022/07/01 09:14:27;;;;;;;14.75;7.72;;;19.30;99.90;;;;;;4967311;28;255114;-77
2022/07/01 09:16:55;;;;;;;15.45;8.40;;;19.30;99.90;;;;;;4937933;28;208088;-77
2022/07/01 09:19:22;;;;;;;15.30;8.30;;;19.30;99.90;;;;;;5005427;28;255012;-77
2022/07/01 09:21:56;;;;;;;12.48;7.47;;;19.10;99.90;;;;;;4955035;28;206838;-77
2022/07/01 09:24:24;;;;;;;14.30;6.55;;;19.30;99.90;;;;;;4970630;28;260984;-77
2022/07/01 09:27:19;;;;;;;13.75;6.32;;;19.70;99.90;;;;;;4952321;28;210346;-76
2022/07/01 09:29:52;;;;;;;13.88;6.20;;;19.80;99.90;;;;;;4972828;28;200778;-78
2022/07/01 09:32:21;;;;;;;11.63;5.70;;;19.80;99.90;;;;;;4921636;28;205193;-79
2022/07/01 09:34:50;;;;;;;15.88;6.00;;;19.70;99.90;;;;;;4979074;28;85482;-77
2022/07/01 09:37:19;;;;;;;12.23;5.78;;;19.90;99.90;;;;;;4948594;28;210107;-78
2022/07/01 09:39:46;;;;;;;12.80;6.10;;;20.00;99.90;;;;;;4961040;28;67334;-78
2022/07/01 09:42:12;;;;;;;13.05;5.10;;;20.00;99.90;;;;;;4941186;28;205631;-78
2022/07/01 09:44:58;;;;;;;12.05;4.75;;;20.20;99.90;;;;;;4979936;28;96242;-79
2022/07/01 09:47:26;;;;;;;12.60;5.50;;;20.20;99.90;;;;;;4946428;28;206120;-79
2022/07/01 09:49:53;;;;;;;11.80;5.60;;;20.20;99.90;;;;;;4980600;28;164888;-79
2022/07/01 09:52:21;;;;;;;12.82;4.85;;;20.00;99.90;;;;;;4922146;28;206349;-78
2022/07/01 09:54:48;;;;;;;9.50;2.95;;;19.90;99.90;;;;;;4982173;28;144829;-78
2022/07/01 09:57:15;;;;;;;10.15;3.70;;;20.00;99.90;;;;;;4919025;28;215772;-77
2022/07/01 09:59:41;;;;;;;10.45;3.90;;;20.00;99.90;;;;;;4996378;28;231714;-79
2022/07/01 10:02:12;;;;;;;11.35;5.00;;;20.00;99.90;;;;;;4954341;28;115820;-78
2022/07/01 10:04:42;;;;;;;10.52;4.85;;;20.20;99.90;;;;;;4952225;28;150868;-79
2022/07/01 10:07:39;;;;;;;14.38;5.60;;;20.50;99.90;;;;;;4960257;28;210016;-79
2022/07/01 10:10:24;;;;;;;12.75;5.57;;;20.60;99.90;;;;;;4985739;28;134227;-79
2022/07/01 10:12:53;;;;;;;11.65;5.18;;;20.50;99.90;;;;;;4956144;28;205445;-77
2022/07/01 10:15:20;;;;;;;12.65;5.20;;;20.30;99.90;;;;;;4974325;28;214865;-79
2022/07/01 10:17:49;;;;;;;10.95;4.85;;;20.20;99.90;;;;;;4995760;28;20050;-79
2022/07/01 10:20:18;;;;;;;12.27;4.53;;;20.20;99.90;;;;;;4988176;28;129262;-79
2022/07/01 10:22:46;;;;;;;10.80;3.90;;;20.30;99.90;;;;;;4980197;28;124298;-79
2022/07/01 10:25:41;;;;;;;9.77;3.47;;;20.80;99.90;;;;;;5006812;28;72653;-78
2022/07/01 10:28:34;;;;;;;12.05;3.47;;;21.10;99.90;;;;;;4971661;28;211272;-77
2022/07/01 10:31:05;;;;;;;11.95;3.72;;;20.90;99.90;;;;;;4952399;28;211463;-77
2022/07/01 10:33:33;;;;;;;12.32;3.40;;;21.00;99.90;;;;;;5007307;28;20060;-78
2022/07/01 10:36:10;;;;;;;11.45;3.70;;;21.20;99.90;;;;;;4937376;28;215211;-77
2022/07/01 10:39:09;;;;;;;11.07;3.22;;;21.30;99.90;;;;;;4996036;28;20060;-79
2022/07/01 10:41:36;;;;;;;10.43;3.15;;;21.90;99.90;;;;;;4933812;28;206649;-78
2022/07/01 10:44:11;;;;;;;9.77;3.17;;;22.50;99.90;;;;;;5004896;28;20054;-76
2022/07/01 10:46:46;;;;;;;11.60;3.28;;;22.40;99.90;;;;;;4939267;28;208171;-77
2022/07/01 10:49:13;;;;;;;9.75;2.80;;;22.30;99.70;;;;;;4989276;28;270324;-78
2022/07/01 10:51:49;;;;;;;10.32;3.03;;;22.30;99.00;;;;;;4963837;28;176177;-77
2022/07/01 10:54:52;;;;;;;10.82;3.40;;;22.10;98.60;;;;;;4973116;28;267231;-77
2022/07/01 10:57:18;;;;;;;12.18;2.92;;;21.80;97.40;;;;;;4952408;28;219152;-76
2022/07/01 10:59:56;;;;;;;10.05;2.90;;;21.60;98.70;;;;;;4977750;28;20112;-78
2022/07/01 11:02:26;;;;;;;8.57;2.58;;;21.60;99.50;;;;;;4959604;28;202171;-78
2022/07/01 11:04:55;;;;;;;10.18;2.53;;;21.80;99.80;;;;;;4979017;28;132644;-77
2022/07/01 11:07:25;;;;;;;8.57;2.85;;;22.10;99.20;;;;;;4921484;28;218803;-78
2022/07/01 11:09:52;;;;;;;11.20;2.75;;;22.70;98.90;;;;;;4981243;28;37819;-77
2022/07/01 11:12:20;;;;;;;8.93;2.60;;;23.10;97.40;;;;;;4958982;28;200484;-79
2022/07/01 11:14:46;;;;;;;9.38;2.50;;;23.40;95.70;;;;;;5005271;28;22826;-79
2022/07/01 11:17:13;;;;;;;8.90;2.67;;;23.40;95.70;;;;;;4959773;28;211683;-78
2022/07/01 11:19:39;;;;;;;8.95;2.38;;;23.10;93.80;;;;;;4978358;28;182880;-79
2022/07/01 11:22:06;;;;;;;10.13;2.50;;;22.90;94.60;;;;;;4938767;28;209542;-82
2022/07/01 11:24:32;;;;;;;9.75;2.45;;;23.10;96.00;;;;;;4988246;28;134166;-80
2022/07/01 11:27:07;;;;;;;9.50;2.40;;;23.10;96.30;;;;;;4965553;28;210195;-79
2022/07/01 11:29:34;;;;;;;8.27;2.20;;;22.90;93.70;;;;;;4973434;28;66245;-79
2022/07/01 11:32:00;;;;;;;9.32;2.17;;;22.50;94.30;;;;;;4931997;28;211797;-79
2022/07/01 11:34:29;;;;;;;9.60;1.70;;;22.40;96.20;;;;;;4972466;28;270799;-79
2022/07/01 11:39:43;;;;;;;8.43;1.50;;;21.60;96.50;;;;;;5014135;28;20058;-79
2022/07/01 11:42:11;;;;;;;7.90;1.60;;;21.40;96.90;;;;;;4955801;28;137463;-79
2022/07/01 11:44:42;;;;;;;6.55;1.30;;;21.20;97.40;;;;;;5002401;28;161324;-79
2022/07/01 11:47:11;;;;;;;8.48;1.63;;;21.00;98.40;;;;;;4963441;28;207455;-80
2022/07/01 11:49:48;;;;;;;8.07;1.48;;;20.70;99.20;;;;;;4983704;28;61451;-79
2022/07/01 11:52:16;;;;;;;8.07;1.40;;;20.70;99.40;;;;;;4950912;28;187035;-79
2022/07/01 11:54:50;;;;;;;8.00;1.40;;;20.80;99.80;;;;;;4995603;28;83664;-79
2022/07/01 11:57:22;;;;;;;9.20;1.70;;;21.40;99.90;;;;;;4958466;28;216617;-79
2022/07/01 11:59:50;;;;;;;7.07;1.17;;;22.40;99.90;;;;;;4975137;28;235456;-80
2022/07/01 12:02:18;;;;;;;8.02;1.33;;;22.90;96.60;;;;;;4947762;28;211015;-79
2022/07/01 12:04:45;;;;;;;7.03;1.42;;;23.20;94.50;;;;;;4969506;28;99027;-79
2022/07/01 12:07:13;;;;;;;5.60;1.05;;;23.50;93.30;;;;;;4949776;28;205112;-79
2022/07/01 12:09:40;;;;;;;6.80;1.10;;;23.70;93.40;;;;;;4980263;28;243824;-80
2022/07/01 12:12:07;;;;;;;6.97;1.17;;;23.80;88.10;;;;;;4970567;28;220624;-79
2022/07/01 12:14:35;;;;;;;6.07;1.00;;;23.70;81.50;;;;;;5001342;28;73914;-79
2022/07/01 12:17:05;;;;;;;6.53;1.10;;;23.40;80.20;;;;;;4954744;28;207775;-81
2022/07/01 12:19:40;;;;;;;7.30;1.17;;;23.60;78.10;;;;;;5006924;28;76265;-81
2022/07/01 12:22:18;;;;;;;6.30;1.25;;;23.80;83.40;;;;;;4945174;28;204800;-80
2022/07/01 12:24:49;;;;;;;6.72;1.00;;;23.90;78.40;;;;;;5005233;28;22975;-80
2022/07/01 12:27:16;;;;;;;8.40;1.25;;;23.80;78.90;;;;;;4977179;28;214788;-80
2022/07/01 12:29:45;;;;;;;7.20;1.00;;;24.00;78.40;;;;;;5002157;28;20348;-80
2022/07/01 12:32:13;;;;;;;6.45;1.05;;;24.30;79.80;;;;;;4964286;28;193458;-80
2022/07/01 12:34:43;;;;;;;7.07;1.23;;;24.20;74.10;;;;;;4993379;28;30052;-80
2022/07/01 12:37:13;;;;;;;7.10;1.30;;;23.80;77.60;;;;;;4958423;28;206416;-81
2022/07/01 12:39:52;;;;;;;8.95;1.05;;;24.00;79.40;;;;;;5000646;28;269868;-80
2022/07/01 12:42:23;;;;;;;6.93;1.10;;;23.70;71.20;;;;;;4958232;28;211918;-80
2022/07/01 12:44:51;;;;;;;7.90;1.30;;;23.10;76.50;;;;;;5010183;28;216513;-80
2022/07/01 12:47:26;;;;;;;6.03;0.90;;;22.80;78.20;;;;;;4947336;28;220802;-80